Time;durP1;ratioP1;P1;durP2;ratioP2;P2;SDS_P1;SDS_P2;PMS_P1;PMS_P2;Temp;Humidity;BMP_temperature;BMP_pressure;BME280_temperature;BME280_humidity;BME280_pressure;Samples;Min_cycle;Max_cycle;Signal;HPM_P1;HPM_P2
2024/02/27 00:00:27;;;;;;;6.57;4.50;;;5.30;90.60;;;;;;6279671;22;38761;-77
2024/02/27 00:02:53;;;;;;;10.50;5.33;;;5.30;90.30;;;;;;6280582;22;39422;-76
2024/02/27 00:05:19;;;;;;;7.57;4.93;;;5.30;87.70;;;;;;6278464;22;37303;-77
2024/02/27 00:07:49;;;;;;;9.63;5.00;;;5.30;85.30;;;;;;6277890;22;39135;-77
2024/02/27 00:10:16;;;;;;;9.20;4.83;;;5.30;88.20;;;;;;6276150;22;37431;-77
2024/02/27 00:12:44;;;;;;;7.33;4.73;;;5.30;87.90;;;;;;6279164;22;39281;-77
2024/02/27 00:15:10;;;;;;;8.83;5.17;;;5.30;87.10;;;;;;6279429;22;38142;-76
2024/02/27 00:17:36;;;;;;;7.17;5.20;;;5.30;86.30;;;;;;6278349;22;38961;-77
2024/02/27 00:20:03;;;;;;;8.67;5.07;;;5.20;88.60;;;;;;6279573;22;38475;-77
2024/02/27 00:22:30;;;;;;;9.20;4.90;;;5.20;90.60;;;;;;6273780;22;36886;-77
2024/02/27 00:24:56;;;;;;;10.33;5.43;;;5.20;91.10;;;;;;6275089;22;37993;-77
2024/02/27 00:27:22;;;;;;;7.87;5.07;;;5.10;93.40;;;;;;6274967;22;40724;-76
2024/02/27 00:29:48;;;;;;;8.83;5.50;;;5.10;93.70;;;;;;6279576;22;38511;-76
2024/02/27 00:32:14;;;;;;;8.30;5.60;;;5.00;94.90;;;;;;6276699;22;37632;-76
2024/02/27 00:34:40;;;;;;;6.63;5.13;;;5.00;95.90;;;;;;6283044;22;37343;-77
2024/02/27 00:37:06;;;;;;;8.37;5.53;;;5.00;96.10;;;;;;6281258;22;40112;-78
2024/02/27 00:39:32;;;;;;;9.23;5.57;;;4.90;97.40;;;;;;6282632;22;39783;-77
2024/02/27 00:42:00;;;;;;;9.00;5.70;;;4.90;99.70;;;;;;6282884;22;37956;-77
2024/02/27 00:44:26;;;;;;;8.27;6.23;;;4.90;99.90;;;;;;6282511;22;39998;-77
2024/02/27 00:46:52;;;;;;;9.37;5.53;;;4.90;99.90;;;;;;6283695;22;37824;-76
2024/02/27 00:49:19;;;;;;;7.63;5.37;;;4.90;99.90;;;;;;6280970;22;39235;-76
2024/02/27 00:51:45;;;;;;;8.10;5.40;;;4.90;99.90;;;;;;6282933;22;38324;-76
2024/02/27 00:54:11;;;;;;;8.53;5.63;;;4.90;99.90;;;;;;6279471;22;36293;-77
2024/02/27 00:56:37;;;;;;;10.27;6.30;;;4.90;99.90;;;;;;6285297;22;39000;-77
2024/02/27 00:59:04;;;;;;;9.00;5.50;;;4.90;99.90;;;;;;6284323;22;38619;-77
2024/02/27 01:01:30;;;;;;;10.13;6.03;;;4.80;99.90;;;;;;6283537;22;39331;-77
2024/02/27 01:03:56;;;;;;;8.63;5.47;;;4.80;99.90;;;;;;6282172;22;35966;-77
2024/02/27 01:06:22;;;;;;;8.93;5.73;;;4.70;99.90;;;;;;6284556;22;38637;-77
2024/02/27 01:08:48;;;;;;;8.63;5.60;;;4.70;99.90;;;;;;6285710;22;38743;-77
2024/02/27 01:11:14;;;;;;;10.70;5.80;;;4.60;99.90;;;;;;6281248;22;38913;-77
2024/02/27 01:13:41;;;;;;;9.40;6.50;;;4.60;99.90;;;;;;6283907;22;37351;-77
2024/02/27 01:16:07;;;;;;;9.53;6.37;;;4.60;99.90;;;;;;6273790;22;39153;-76
2024/02/27 01:18:33;;;;;;;11.00;6.20;;;4.50;99.90;;;;;;6277117;22;39715;-76
2024/02/27 01:21:00;;;;;;;12.03;5.97;;;4.50;99.90;;;;;;6282556;22;37698;-77
2024/02/27 01:23:27;;;;;;;10.60;6.43;;;4.50;99.90;;;;;;6282423;22;49749;-75
2024/02/27 01:25:53;;;;;;;9.33;5.93;;;4.50;99.90;;;;;;6282171;22;37829;-77
2024/02/27 01:28:19;;;;;;;9.63;6.00;;;4.50;99.90;;;;;;6283179;22;39470;-75
2024/02/27 01:30:46;;;;;;;11.07;6.50;;;4.50;99.90;;;;;;6284086;22;38186;-75
2024/02/27 01:33:12;;;;;;;10.13;6.07;;;4.50;99.90;;;;;;6284821;22;37439;-75
2024/02/27 01:35:38;;;;;;;12.37;7.37;;;4.50;99.90;;;;;;6278930;22;39541;-76
2024/02/27 01:38:04;;;;;;;10.33;5.33;;;4.50;99.90;;;;;;6278598;22;39180;-76
2024/02/27 01:40:30;;;;;;;7.53;5.87;;;4.40;99.90;;;;;;6279253;22;39073;-75
2024/02/27 01:42:56;;;;;;;13.23;6.73;;;4.40;99.90;;;;;;6279859;22;37013;-76
2024/02/27 01:45:22;;;;;;;11.70;6.27;;;4.40;99.90;;;;;;6279681;22;38612;-75
2024/02/27 01:47:53;;;;;;;9.07;5.07;;;4.40;99.90;;;;;;6278989;22;37106;-76
2024/02/27 01:50:20;;;;;;;9.80;5.60;;;4.40;99.90;;;;;;6282570;22;37864;-75
2024/02/27 01:52:46;;;;;;;7.93;5.57;;;4.40;99.90;;;;;;6280897;22;38978;-75
2024/02/27 01:55:14;;;;;;;10.43;6.10;;;4.30;99.90;;;;;;6279861;22;37390;-76
2024/02/27 01:57:41;;;;;;;8.73;5.70;;;4.30;99.90;;;;;;6280163;22;39223;-75
2024/02/27 02:00:11;;;;;;;11.63;5.77;;;4.30;99.90;;;;;;6282091;22;38619;-75
2024/02/27 02:02:48;;;;;;;7.57;5.07;;;4.20;99.90;;;;;;6194067;22;36598;-89
2024/02/27 02:05:14;;;;;;;11.50;6.07;;;4.20;99.90;;;;;;6200867;23;38976;-85
2024/02/27 02:07:49;;;;;;;9.13;6.27;;;4.10;99.90;;;;;;6207742;23;39682;-86
2024/02/27 02:10:16;;;;;;;8.83;5.43;;;4.10;99.90;;;;;;6204076;23;37792;-84
2024/02/27 02:12:48;;;;;;;12.50;6.17;;;4.10;99.90;;;;;;6190985;23;37799;-88
2024/02/27 02:15:19;;;;;;;9.63;5.50;;;4.10;99.90;;;;;;6206347;22;40209;-84
2024/02/27 02:17:48;;;;;;;12.37;5.00;;;4.10;99.90;;;;;;6206932;23;39010;-86
2024/02/27 02:20:19;;;;;;;11.20;6.17;;;4.10;99.90;;;;;;6202850;22;37978;-86
2024/02/27 02:22:48;;;;;;;10.67;6.33;;;4.10;99.90;;;;;;6190895;23;36294;-82
2024/02/27 02:25:17;;;;;;;9.40;5.00;;;4.20;99.90;;;;;;6203396;23;40301;-84
2024/02/27 02:27:47;;;;;;;7.93;5.33;;;4.10;99.90;;;;;;6181755;23;37097;-86
2024/02/27 02:30:16;;;;;;;13.60;5.47;;;4.10;99.90;;;;;;6203440;23;39083;-85
2024/02/27 02:32:49;;;;;;;14.13;5.97;;;4.10;99.90;;;;;;6202667;23;36826;-85
2024/02/27 02:35:16;;;;;;;10.33;5.43;;;4.20;99.90;;;;;;6201096;23;39353;-88
2024/02/27 02:37:48;;;;;;;11.27;5.37;;;4.10;99.90;;;;;;6206456;23;38061;-87
2024/02/27 02:40:18;;;;;;;9.57;5.20;;;4.10;99.90;;;;;;6206039;23;38810;-88
2024/02/27 02:42:59;;;;;;;13.93;5.70;;;4.00;99.90;;;;;;6182836;23;37646;-85
2024/02/27 02:45:28;;;;;;;12.03;6.37;;;4.10;99.90;;;;;;6203409;23;39593;-83
2024/02/27 02:47:54;;;;;;;11.77;6.47;;;4.00;99.90;;;;;;6202945;23;38963;-81
2024/02/27 02:50:21;;;;;;;8.87;5.77;;;4.00;99.90;;;;;;6199498;23;37264;-87
2024/02/27 02:52:47;;;;;;;10.50;5.57;;;4.00;99.90;;;;;;6203740;23;36058;-84
2024/02/27 02:55:17;;;;;;;12.00;5.87;;;3.90;99.90;;;;;;6199178;22;38813;-85
2024/02/27 02:57:44;;;;;;;10.70;5.70;;;3.90;99.90;;;;;;6202276;23;40204;-84
2024/02/27 03:00:12;;;;;;;8.87;5.23;;;3.90;99.90;;;;;;6199596;23;38498;-84
2024/02/27 03:02:39;;;;;;;14.03;5.63;;;3.90;99.90;;;;;;6194613;23;36340;-86
2024/02/27 03:05:06;;;;;;;11.07;5.97;;;3.90;99.90;;;;;;6196226;23;37505;-84
2024/02/27 03:07:33;;;;;;;15.30;5.93;;;3.90;99.90;;;;;;6204081;23;38287;-85
2024/02/27 03:10:03;;;;;;;10.53;5.70;;;3.90;99.90;;;;;;6181906;23;37826;-85
2024/02/27 03:12:29;;;;;;;10.70;5.53;;;3.90;99.90;;;;;;6202772;23;36460;-85
2024/02/27 03:14:56;;;;;;;8.33;6.10;;;3.80;99.90;;;;;;6207624;23;39664;-86
2024/02/27 03:17:22;;;;;;;10.70;6.43;;;3.80;99.90;;;;;;6179724;23;37612;-86
2024/02/27 03:19:52;;;;;;;10.57;5.97;;;3.80;99.90;;;;;;6227692;22;39064;-89
2024/02/27 03:22:21;;;;;;;9.23;5.77;;;3.80;99.90;;;;;;6191147;23;38431;-84
2024/02/27 03:24:57;;;;;;;10.00;5.90;;;3.80;99.90;;;;;;6226967;22;38991;-86
2024/02/27 03:27:23;;;;;;;11.70;6.27;;;3.90;99.90;;;;;;6179188;23;39009;-82
2024/02/27 03:29:49;;;;;;;10.40;6.03;;;3.80;99.90;;;;;;6184697;23;37345;-84
2024/02/27 03:32:15;;;;;;;9.20;6.03;;;3.80;99.90;;;;;;6200216;23;36234;-85
2024/02/27 03:34:42;;;;;;;11.87;6.07;;;3.80;99.90;;;;;;6201781;23;37739;-84
2024/02/27 03:37:08;;;;;;;10.43;5.63;;;3.80;99.90;;;;;;6200834;23;37265;-87
2024/02/27 03:39:34;;;;;;;12.43;5.67;;;3.80;99.90;;;;;;6190829;23;39646;-86
2024/02/27 03:42:01;;;;;;;9.93;5.33;;;3.90;99.90;;;;;;6203896;23;37617;-85
2024/02/27 03:44:27;;;;;;;12.23;6.53;;;3.80;99.90;;;;;;6198855;23;47053;-89
2024/02/27 03:46:55;;;;;;;11.43;6.03;;;3.80;99.90;;;;;;6188347;23;37814;-85
2024/02/27 03:49:22;;;;;;;10.17;6.27;;;3.90;99.90;;;;;;6215532;22;39392;-89
2024/02/27 03:51:48;;;;;;;14.13;6.00;;;3.90;99.90;;;;;;6198507;23;36089;-85
2024/02/27 03:54:14;;;;;;;9.40;5.70;;;3.90;99.90;;;;;;6197759;23;39497;-84
2024/02/27 03:56:43;;;;;;;8.50;5.50;;;3.80;99.90;;;;;;6200913;23;37693;-87
2024/02/27 03:59:11;;;;;;;13.17;5.73;;;3.80;99.90;;;;;;6195990;23;37878;-83
2024/02/27 04:01:37;;;;;;;10.47;5.43;;;3.90;99.90;;;;;;6198662;23;36402;-86
2024/02/27 04:04:04;;;;;;;10.10;5.87;;;3.90;99.90;;;;;;6186952;23;39298;-88
2024/02/27 04:06:31;;;;;;;12.80;5.33;;;3.90;99.90;;;;;;6200967;23;37366;-88
2024/02/27 04:08:57;;;;;;;14.63;5.90;;;3.90;99.90;;;;;;6198801;23;37700;-87
2024/02/27 04:11:23;;;;;;;10.87;5.97;;;3.80;99.90;;;;;;6197184;23;37717;-84
2024/02/27 04:13:49;;;;;;;8.57;5.50;;;3.80;99.90;;;;;;6197462;23;37727;-88
2024/02/27 04:16:16;;;;;;;10.10;6.13;;;3.80;99.90;;;;;;6196797;23;37347;-89
2024/02/27 04:18:45;;;;;;;7.70;4.90;;;3.80;99.90;;;;;;6189574;23;36771;-84
2024/02/27 04:21:13;;;;;;;9.43;5.60;;;3.80;99.90;;;;;;6200933;23;37829;-85
2024/02/27 04:23:39;;;;;;;10.97;6.10;;;3.80;99.90;;;;;;6188603;23;37528;-86
2024/02/27 04:26:12;;;;;;;12.37;5.60;;;3.80;99.90;;;;;;6197256;23;37192;-84
2024/02/27 04:28:38;;;;;;;;;;;3.80;99.90;;;;;;6189009;23;36723;-84
2024/02/27 04:31:06;;;;;;;13.43;5.87;;;3.80;99.90;;;;;;6198082;23;37154;-81
2024/02/27 04:33:32;;;;;;;11.30;5.57;;;3.80;99.90;;;;;;6200892;23;38500;-84
2024/02/27 04:35:58;;;;;;;8.93;6.50;;;3.80;99.90;;;;;;6201918;23;37150;-84
2024/02/27 04:38:30;;;;;;;13.03;6.30;;;3.70;99.90;;;;;;6185164;22;37411;-82
2024/02/27 04:40:56;;;;;;;11.00;5.90;;;3.70;99.90;;;;;;6201663;23;37548;-86
2024/02/27 04:43:25;;;;;;;10.10;5.60;;;3.70;99.90;;;;;;6195846;23;38850;-82
2024/02/27 04:45:51;;;;;;;12.50;5.90;;;3.80;99.90;;;;;;6183104;23;37787;-84
2024/02/27 04:48:24;;;;;;;9.43;5.53;;;3.70;99.90;;;;;;6195035;23;37962;-85
2024/02/27 04:50:51;;;;;;;9.80;5.30;;;3.70;99.90;;;;;;6196218;23;36981;-85
2024/02/27 04:53:17;;;;;;;12.27;5.63;;;3.70;99.90;;;;;;6196184;23;37999;-88
2024/02/27 04:55:43;;;;;;;11.23;4.53;;;3.70;99.90;;;;;;6183552;23;37839;-90
2024/02/27 04:58:09;;;;;;;9.60;5.40;;;3.70;99.90;;;;;;6193938;23;37721;-86
2024/02/27 05:00:35;;;;;;;9.40;5.40;;;3.70;99.90;;;;;;6194883;23;37235;-82
2024/02/27 05:03:02;;;;;;;11.57;5.50;;;3.70;99.90;;;;;;6196904;23;38020;-84
2024/02/27 05:05:28;;;;;;;6.97;5.53;;;3.70;99.90;;;;;;6196072;23;37647;-83
2024/02/27 05:07:54;;;;;;;7.70;5.07;;;3.70;99.90;;;;;;6200134;23;38469;-85
2024/02/27 05:10:20;;;;;;;10.50;5.80;;;3.70;99.90;;;;;;6197335;23;36150;-85
2024/02/27 05:12:46;;;;;;;10.43;5.73;;;3.70;99.90;;;;;;6199560;23;39538;-88
2024/02/27 05:15:12;;;;;;;10.67;5.37;;;3.70;99.90;;;;;;6196921;23;37953;-83
2024/02/27 05:17:39;;;;;;;11.97;5.40;;;3.70;99.90;;;;;;6188601;23;38434;-82
2024/02/27 05:20:05;;;;;;;9.63;5.70;;;3.60;99.90;;;;;;6197895;23;35615;-87
2024/02/27 05:22:31;;;;;;;10.63;5.43;;;3.60;99.90;;;;;;6197078;23;38163;-82
2024/02/27 05:24:57;;;;;;;12.23;5.20;;;3.60;99.90;;;;;;6196700;23;38110;-88
2024/02/27 05:27:24;;;;;;;10.93;5.57;;;3.60;99.90;;;;;;6194896;23;37683;-82
2024/02/27 05:29:50;;;;;;;9.47;5.57;;;3.60;99.90;;;;;;6195778;23;36703;-87
2024/02/27 05:32:16;;;;;;;11.33;5.13;;;3.60;99.90;;;;;;6196745;23;39409;-84
2024/02/27 05:34:42;;;;;;;9.67;4.97;;;3.50;99.90;;;;;;6195662;23;38673;-83
2024/02/27 05:37:14;;;;;;;13.00;5.47;;;3.60;99.90;;;;;;6195570;23;36555;-83
2024/02/27 05:39:41;;;;;;;12.15;5.80;;;3.60;99.90;;;;;;6195864;23;37022;-82
2024/02/27 05:42:07;;;;;;;9.80;5.47;;;3.50;99.90;;;;;;6192627;23;37487;-87
2024/02/27 05:44:33;;;;;;;11.53;5.70;;;3.60;99.90;;;;;;6191440;23;37483;-88
2024/02/27 05:46:59;;;;;;;12.00;5.60;;;3.60;99.90;;;;;;6191274;23;37308;-88
2024/02/27 05:49:25;;;;;;;9.73;5.17;;;3.60;99.90;;;;;;6191036;23;37955;-84
2024/02/27 05:51:58;;;;;;;10.57;6.20;;;3.50;99.90;;;;;;6191857;23;37753;-87
2024/02/27 05:54:26;;;;;;;12.50;5.47;;;3.50;99.90;;;;;;6196239;23;39017;-84
2024/02/27 05:56:54;;;;;;;9.80;5.57;;;3.50;99.90;;;;;;6197539;23;38114;-87
2024/02/27 05:59:23;;;;;;;13.20;5.83;;;3.50;99.90;;;;;;6195508;23;37677;-85
2024/02/27 06:04:37;;;;;;;10.00;5.93;;;3.50;99.90;;;;;;6166422;22;48704;-84
2024/02/27 06:07:03;;;;;;;20.03;7.13;;;3.50;99.90;;;;;;6192204;23;37178;-86
2024/02/27 06:09:34;;;;;;;14.47;7.13;;;3.50;99.90;;;;;;6195361;23;37642;-85
2024/02/27 06:12:00;;;;;;;17.37;7.67;;;3.50;99.90;;;;;;6205871;22;40162;-85
2024/02/27 06:14:26;;;;;;;14.23;8.07;;;3.50;99.90;;;;;;6178302;23;37997;-85
2024/02/27 06:16:54;;;;;;;13.23;7.50;;;3.50;99.90;;;;;;6194386;23;38114;-84
2024/02/27 06:19:26;;;;;;;19.00;9.47;;;3.50;99.90;;;;;;6192718;23;36584;-86
2024/02/27 06:22:11;;;;;;;18.70;9.20;;;3.50;99.90;;;;;;6196691;23;38869;-86
2024/02/27 06:24:38;;;;;;;18.77;9.37;;;3.60;99.90;;;;;;6191269;23;47093;-83
2024/02/27 06:27:05;;;;;;;18.90;9.23;;;3.60;99.90;;;;;;6196528;23;38469;-87
2024/02/27 06:29:31;;;;;;;16.60;9.37;;;3.60;99.90;;;;;;6201857;23;37423;-86
2024/02/27 06:32:01;;;;;;;17.83;10.73;;;3.60;99.90;;;;;;6203732;23;39271;-85
2024/02/27 06:34:30;;;;;;;22.77;10.00;;;3.70;99.90;;;;;;6196766;23;46629;-87
2024/02/27 06:36:56;;;;;;;16.63;10.53;;;3.60;99.90;;;;;;6196201;23;37277;-86
2024/02/27 06:39:22;;;;;;;19.00;10.53;;;3.60;99.90;;;;;;6194090;23;37569;-89
2024/02/27 06:41:50;;;;;;;22.90;9.97;;;3.60;99.90;;;;;;6210600;22;38342;-83
2024/02/27 06:44:17;;;;;;;21.77;10.70;;;3.60;99.90;;;;;;6194383;23;38933;-82
2024/02/27 06:46:44;;;;;;;18.67;10.63;;;3.70;99.90;;;;;;6165890;23;37162;-83
2024/02/27 06:49:11;;;;;;;23.13;10.80;;;3.70;99.90;;;;;;6191796;23;38079;-85
2024/02/27 06:51:38;;;;;;;18.33;11.53;;;3.70;99.90;;;;;;6194303;23;37940;-88
2024/02/27 06:54:04;;;;;;;23.50;11.50;;;3.70;99.90;;;;;;6197741;23;39203;-80
2024/02/27 06:56:31;;;;;;;23.80;12.23;;;3.70;99.90;;;;;;6200160;23;36807;-82
2024/02/27 06:59:01;;;;;;;20.03;11.57;;;3.70;99.90;;;;;;6200412;23;38273;-84
2024/02/27 07:01:27;;;;;;;20.87;11.97;;;3.70;99.90;;;;;;6198275;23;48170;-81
2024/02/27 07:03:53;;;;;;;19.90;12.23;;;3.70;99.90;;;;;;6197085;23;39781;-81
2024/02/27 07:06:19;;;;;;;23.83;11.90;;;3.70;99.90;;;;;;6196609;23;37585;-81
2024/02/27 07:08:48;;;;;;;18.37;11.23;;;3.70;99.90;;;;;;6202698;23;38507;-84
2024/02/27 07:11:17;;;;;;;26.57;12.17;;;3.70;99.90;;;;;;6201824;23;37652;-84
2024/02/27 07:13:43;;;;;;;20.40;11.80;;;3.70;99.90;;;;;;6206053;23;38830;-81
2024/02/27 07:16:10;;;;;;;19.60;11.63;;;3.70;99.90;;;;;;6202725;23;37484;-83
2024/02/27 07:18:37;;;;;;;23.67;12.83;;;3.70;99.90;;;;;;6204068;23;37901;-85
2024/02/27 07:21:03;;;;;;;25.70;12.13;;;3.80;99.90;;;;;;6200573;23;41575;-85
2024/02/27 07:23:32;;;;;;;24.73;12.73;;;3.80;99.90;;;;;;6202391;23;38407;-84
2024/02/27 07:25:59;;;;;;;20.57;11.97;;;3.80;99.90;;;;;;6199587;23;37351;-86
2024/02/27 07:28:25;;;;;;;21.73;13.03;;;3.90;99.90;;;;;;6199898;23;37564;-83
2024/02/27 07:30:55;;;;;;;20.50;12.17;;;3.80;99.90;;;;;;6190582;23;37686;-84
2024/02/27 07:33:21;;;;;;;22.73;12.37;;;3.80;99.90;;;;;;6202099;23;38253;-87
2024/02/27 07:35:50;;;;;;;22.43;12.83;;;3.80;99.90;;;;;;6200285;23;38541;-82
2024/02/27 07:38:16;;;;;;;20.87;11.47;;;3.90;99.90;;;;;;6201310;23;36914;-85
2024/02/27 07:40:43;;;;;;;19.80;12.57;;;3.90;99.90;;;;;;6200936;23;38975;-84
2024/02/27 07:43:11;;;;;;;23.17;12.27;;;3.90;99.90;;;;;;6198656;23;37822;-84
2024/02/27 07:45:37;;;;;;;17.07;11.63;;;3.90;99.90;;;;;;6204109;23;37311;-85
2024/02/27 07:48:04;;;;;;;20.13;12.33;;;4.00;99.90;;;;;;6203415;23;36926;-82
2024/02/27 07:50:36;;;;;;;24.37;12.07;;;4.00;99.90;;;;;;6204568;23;37988;-85
2024/02/27 07:53:11;;;;;;;22.33;11.10;;;4.00;99.90;;;;;;6206394;23;37484;-82
2024/02/27 07:55:39;;;;;;;18.30;11.90;;;4.10;99.90;;;;;;6192901;23;37242;-81
2024/02/27 07:58:05;;;;;;;21.60;12.67;;;4.10;99.90;;;;;;6205709;22;36403;-84
2024/02/27 08:00:31;;;;;;;20.53;11.53;;;4.20;99.90;;;;;;6205904;23;38397;-86
2024/02/27 08:02:58;;;;;;;21.33;11.43;;;4.20;99.90;;;;;;6208413;23;38838;-81
2024/02/27 08:05:27;;;;;;;18.37;11.33;;;4.20;99.90;;;;;;6207415;23;39407;-87
2024/02/27 08:08:08;;;;;;;22.30;12.57;;;4.30;99.90;;;;;;6209222;23;37969;-89
2024/02/27 08:10:35;;;;;;;20.43;10.93;;;4.30;99.90;;;;;;6202820;23;48000;-82
2024/02/27 08:13:04;;;;;;;17.33;11.53;;;4.40;99.90;;;;;;6204950;23;38151;-85
2024/02/27 08:15:30;;;;;;;22.03;12.43;;;4.40;99.90;;;;;;6205531;23;48882;-87
2024/02/27 08:17:56;;;;;;;23.57;13.23;;;4.40;99.90;;;;;;6201431;23;36768;-85
2024/02/27 08:20:26;;;;;;;21.13;12.27;;;4.50;99.90;;;;;;6203304;23;39010;-85
2024/02/27 08:22:58;;;;;;;22.23;13.03;;;4.50;99.90;;;;;;6210362;22;37722;-83
2024/02/27 08:25:28;;;;;;;;;;;4.60;99.90;;;;;;6170059;23;39523;-83
2024/02/27 08:27:59;;;;;;;20.73;14.00;;;4.70;99.90;;;;;;6210880;23;39179;-89
2024/02/27 08:30:28;;;;;;;21.63;14.13;;;4.70;99.90;;;;;;6203137;23;49372;-88
2024/02/27 08:33:03;;;;;;;21.17;12.97;;;4.70;99.90;;;;;;6223549;22;39637;-87
2024/02/27 08:35:31;;;;;;;25.67;14.77;;;4.80;99.90;;;;;;6199042;23;50151;-86
2024/02/27 08:38:05;;;;;;;19.83;13.53;;;4.90;99.90;;;;;;6226389;22;38803;-89
2024/02/27 08:40:39;;;;;;;19.15;13.52;;;5.00;99.90;;;;;;6208700;22;49760;-84
2024/02/27 08:43:05;;;;;;;25.00;12.93;;;5.10;99.90;;;;;;6246107;22;39056;-75
2024/02/27 08:45:31;;;;;;;25.87;12.90;;;5.10;99.90;;;;;;6277286;22;39932;-76
2024/02/27 08:48:01;;;;;;;24.23;13.47;;;5.20;99.90;;;;;;6276850;22;36306;-76
2024/02/27 08:50:27;;;;;;;20.87;12.77;;;5.30;99.90;;;;;;6277308;22;47099;-77
2024/02/27 08:52:53;;;;;;;18.43;12.33;;;5.40;99.90;;;;;;6276401;22;39232;-75
2024/02/27 08:55:19;;;;;;;17.20;11.30;;;5.50;99.90;;;;;;6277399;22;37188;-76
2024/02/27 08:57:46;;;;;;;17.30;11.13;;;5.50;99.90;;;;;;6276723;22;38577;-76
2024/02/27 09:00:14;;;;;;;18.57;11.00;;;5.60;99.90;;;;;;6277703;22;39464;-76
2024/02/27 09:02:41;;;;;;;17.10;10.97;;;5.60;99.90;;;;;;6278450;22;39453;-76
2024/02/27 09:05:07;;;;;;;14.70;11.10;;;5.70;99.90;;;;;;6276181;22;38267;-77
2024/02/27 09:07:37;;;;;;;16.60;11.60;;;5.70;99.90;;;;;;6276665;22;36372;-76
2024/02/27 09:10:04;;;;;;;16.63;10.43;;;5.80;99.90;;;;;;6279501;22;39167;-78
2024/02/27 09:12:30;;;;;;;17.73;10.57;;;5.80;99.90;;;;;;6278703;22;38677;-76
2024/02/27 09:14:56;;;;;;;17.20;10.63;;;5.80;98.20;;;;;;6280081;22;37980;-75
2024/02/27 09:17:23;;;;;;;18.60;10.23;;;5.90;96.70;;;;;;6279724;22;38541;-75
2024/02/27 09:19:50;;;;;;;14.33;9.93;;;6.00;94.80;;;;;;6276679;22;39661;-76
2024/02/27 09:22:16;;;;;;;15.43;9.60;;;6.10;90.00;;;;;;6274945;22;40115;-75
2024/02/27 09:24:42;;;;;;;17.63;10.13;;;6.10;69.60;;;;;;6276357;22;37477;-75
2024/02/27 09:27:09;;;;;;;13.83;9.23;;;6.10;54.40;;;;;;6278668;22;37859;-74
2024/02/27 09:29:35;;;;;;;14.87;9.77;;;6.10;42.50;;;;;;6275085;22;39014;-74
2024/02/27 09:32:01;;;;;;;13.70;8.63;;;6.10;36.70;;;;;;6275225;22;38980;-76
2024/02/27 09:34:28;;;;;;;15.17;8.57;;;6.10;30.20;;;;;;6277568;22;39583;-76
2024/02/27 09:36:54;;;;;;;15.50;9.30;;;6.20;30.40;;;;;;6275764;22;35899;-74
2024/02/27 09:39:21;;;;;;;16.63;9.33;;;6.20;31.50;;;;;;6276224;22;39579;-75
2024/02/27 09:41:47;;;;;;;15.33;9.30;;;6.30;28.40;;;;;;6277918;22;37809;-75
2024/02/27 09:44:15;;;;;;;15.90;9.07;;;6.30;20.40;;;;;;6276643;22;38136;-75
2024/02/27 09:46:43;;;;;;;15.93;10.13;;;6.30;24.60;;;;;;6272890;22;37037;-78
2024/02/27 09:49:11;;;;;;;15.27;10.20;;;6.30;19.10;;;;;;6275508;22;39388;-75
2024/02/27 09:51:39;;;;;;;15.77;9.70;;;6.40;24.60;;;;;;6277616;22;39211;-75
2024/02/27 09:54:05;;;;;;;13.20;9.60;;;6.40;29.90;;;;;;6273137;22;39227;-76
2024/02/27 09:56:35;;;;;;;15.33;9.77;;;6.50;24.90;;;;;;6275092;22;37530;-75
2024/02/27 09:59:03;;;;;;;13.23;9.57;;;6.50;21.50;;;;;;6273754;22;39827;-75
2024/02/27 10:01:31;;;;;;;13.43;9.13;;;6.60;17.90;;;;;;6273979;22;40618;-75
2024/02/27 10:03:59;;;;;;;14.40;9.13;;;6.70;23.30;;;;;;6274797;22;39378;-75
2024/02/27 10:06:31;;;;;;;14.37;9.17;;;6.80;19.90;;;;;;6273015;22;36063;-75
2024/02/27 10:09:02;;;;;;;12.45;8.63;;;6.90;10.90;;;;;;6274703;22;39545;-76
2024/02/27 10:11:28;;;;;;;13.77;8.90;;;7.00;4.30;;;;;;6273515;22;47013;-75
2024/02/27 10:13:55;;;;;;;12.63;8.67;;;7.10;3.30;;;;;;6274954;22;39052;-75
2024/02/27 10:16:23;;;;;;;15.57;9.90;;;7.10;1.00;;;;;;6275127;22;36858;-75
2024/02/27 10:18:49;;;;;;;16.30;9.77;;;7.20;2.30;;;;;;6274789;22;39271;-75
2024/02/27 10:21:19;;;;;;;15.30;8.33;;;7.30;1.00;;;;;;6273529;22;39540;-75
2024/02/27 10:23:46;;;;;;;13.97;8.50;;;7.30;1.00;;;;;;6273014;22;38835;-75
2024/02/27 10:26:13;;;;;;;12.50;8.20;;;7.40;1.00;;;;;;6274861;22;37825;-74
2024/02/27 10:28:39;;;;;;;11.63;8.30;;;7.40;1.00;;;;;;6277079;22;39139;-74
2024/02/27 10:31:09;;;;;;;13.63;8.10;;;7.30;1.00;;;;;;6272741;22;37823;-75
2024/02/27 10:33:47;;;;;;;10.37;7.50;;;7.40;1.00;;;;;;6275333;22;38544;-75
2024/02/27 10:36:13;;;;;;;10.87;7.60;;;7.50;1.00;;;;;;6271003;22;35887;-74
2024/02/27 10:38:39;;;;;;;11.67;7.60;;;7.60;1.00;;;;;;6274087;22;39450;-75
2024/02/27 10:41:06;;;;;;;16.00;8.23;;;7.60;1.00;;;;;;6272024;22;38092;-75
2024/02/27 10:43:35;;;;;;;10.53;8.13;;;7.70;1.00;;;;;;6272732;22;37115;-76
2024/02/27 10:46:01;;;;;;;12.53;7.37;;;7.70;1.00;;;;;;6273994;22;36222;-75
2024/02/27 10:48:30;;;;;;;17.13;9.00;;;7.70;1.00;;;;;;6275252;22;48079;-76
2024/02/27 10:50:57;;;;;;;13.53;8.60;;;7.80;1.00;;;;;;6274830;22;38424;-76
2024/02/27 10:53:25;;;;;;;12.03;8.00;;;7.80;1.00;;;;;;6274745;22;38039;-76
2024/02/27 10:55:55;;;;;;;14.80;8.70;;;7.70;1.00;;;;;;6271937;22;37089;-76
2024/02/27 10:58:21;;;;;;;10.73;6.83;;;8.00;1.00;;;;;;6270720;22;38740;-75
2024/02/27 11:00:47;;;;;;;12.73;6.63;;;8.00;1.00;;;;;;6276050;22;38309;-74
2024/02/27 11:03:15;;;;;;;10.87;7.27;;;8.20;1.00;;;;;;6272718;22;37381;-74
2024/02/27 11:05:46;;;;;;;9.07;6.27;;;8.30;1.00;;;;;;6269539;22;37353;-75
2024/02/27 11:08:13;;;;;;;13.27;7.23;;;8.40;1.00;;;;;;6276463;22;39107;-74
2024/02/27 11:10:40;;;;;;;9.90;6.97;;;8.50;1.00;;;;;;6275172;22;37192;-74
2024/02/27 11:13:08;;;;;;;8.93;6.90;;;8.70;1.00;;;;;;6275246;22;38363;-75
2024/02/27 11:15:37;;;;;;;10.40;7.00;;;8.60;1.00;;;;;;6274079;22;36196;-75
2024/02/27 11:18:06;;;;;;;10.87;6.57;;;8.70;1.00;;;;;;6275893;22;38480;-74
2024/02/27 11:20:33;;;;;;;10.83;6.47;;;8.80;1.00;;;;;;6277235;22;38315;-74
2024/02/27 11:22:59;;;;;;;12.37;7.43;;;8.80;1.00;;;;;;6275131;22;36986;-75
2024/02/27 11:25:25;;;;;;;10.97;5.83;;;8.80;1.00;;;;;;6270665;22;35545;-74
2024/02/27 11:27:54;;;;;;;6.13;5.53;;;8.90;1.00;;;;;;6271020;22;38878;-75
2024/02/27 11:30:22;;;;;;;6.83;5.60;;;8.90;1.00;;;;;;6265110;22;38542;-74
2024/02/27 11:32:48;;;;;;;8.83;5.33;;;9.00;1.00;;;;;;6270841;22;37125;-74
2024/02/27 11:35:16;;;;;;;11.03;6.67;;;9.10;1.00;;;;;;6270797;22;36832;-76
2024/02/27 11:37:43;;;;;;;9.33;5.93;;;9.00;1.00;;;;;;6272364;22;38984;-76
2024/02/27 11:40:10;;;;;;;8.40;6.23;;;9.00;1.00;;;;;;6272193;22;38313;-76
2024/02/27 11:42:38;;;;;;;9.80;6.10;;;9.20;1.00;;;;;;6273495;22;36893;-74
2024/02/27 11:45:10;;;;;;;7.60;6.53;;;9.30;1.00;;;;;;6275879;22;37882;-74
2024/02/27 11:47:53;;;;;;;7.95;5.93;;;9.40;1.00;;;;;;6272545;22;48873;-74
2024/02/27 11:50:34;;;;;;;13.47;6.50;;;9.50;1.00;;;;;;6273539;22;38479;-75
2024/02/27 11:53:16;;;;;;;7.53;6.20;;;9.60;1.00;;;;;;6273696;22;37385;-76
2024/02/27 11:55:46;;;;;;;9.40;6.63;;;9.60;1.00;;;;;;6269860;22;47302;-75
2024/02/27 11:58:13;;;;;;;8.83;6.47;;;9.70;1.00;;;;;;6274717;22;39897;-75
2024/02/27 12:00:42;;;;;;;9.13;5.87;;;9.60;1.00;;;;;;6273601;22;38583;-75
2024/02/27 12:03:09;;;;;;;10.73;6.00;;;9.70;1.00;;;;;;6275543;22;37742;-74
2024/02/27 12:05:36;;;;;;;7.33;5.17;;;9.70;1.00;;;;;;6275207;22;38063;-75
2024/02/27 12:08:02;;;;;;;11.50;5.83;;;9.90;1.00;;;;;;6274686;22;39338;-75
2024/02/27 12:10:29;;;;;;;7.93;5.93;;;10.00;1.00;;;;;;6273461;22;37257;-75
2024/02/27 12:12:55;;;;;;;12.73;5.40;;;9.90;1.00;;;;;;6274253;22;37173;-74
2024/02/27 12:15:22;;;;;;;9.10;5.70;;;10.00;1.00;;;;;;6274006;22;35963;-74
2024/02/27 12:17:48;;;;;;;9.00;5.17;;;10.00;1.00;;;;;;6272557;22;37848;-74
2024/02/27 12:20:15;;;;;;;5.83;5.13;;;10.00;1.00;;;;;;6269608;22;37272;-75
2024/02/27 12:22:45;;;;;;;6.07;5.20;;;10.10;1.00;;;;;;6273849;22;38741;-74
2024/02/27 12:25:12;;;;;;;6.67;4.67;;;10.10;1.00;;;;;;6272019;22;35996;-74
2024/02/27 12:27:39;;;;;;;9.43;5.23;;;10.20;1.00;;;;;;6275599;22;38637;-74
2024/02/27 12:30:12;;;;;;;8.07;4.90;;;10.20;1.00;;;;;;6269957;22;38973;-76
2024/02/27 12:32:43;;;;;;;6.57;4.27;;;10.20;1.00;;;;;;6275492;22;39461;-75
2024/02/27 12:35:14;;;;;;;7.97;4.87;;;10.30;99.90;;;;;;6275610;22;38414;-74
2024/02/27 12:37:47;;;;;;;8.87;5.00;;;10.30;1.00;;;;;;6275555;22;39477;-74
2024/02/27 12:40:14;;;;;;;9.37;5.10;;;10.40;1.00;;;;;;6271848;22;39537;-75
2024/02/27 12:42:42;;;;;;;6.93;4.70;;;10.60;1.00;;;;;;6272601;22;39100;-77
2024/02/27 12:45:13;;;;;;;7.03;4.70;;;10.70;1.00;;;;;;6275219;22;37231;-75
2024/02/27 12:47:40;;;;;;;7.43;4.77;;;10.70;1.00;;;;;;6276401;22;39352;-74
2024/02/27 12:50:08;;;;;;;6.20;5.00;;;10.70;1.00;;;;;;6276548;22;39817;-74
2024/02/27 12:52:35;;;;;;;7.03;4.97;;;10.80;1.00;;;;;;6275814;22;38158;-74
2024/02/27 12:55:02;;;;;;;6.60;5.07;;;10.80;1.00;;;;;;6278527;22;37153;-74